Time;durP1;ratioP1;P1;durP2;ratioP2;P2;SDS_P1;SDS_P2;PMS_P1;PMS_P2;Temp;Humidity;BMP_temperature;BMP_pressure;BME280_temperature;BME280_humidity;BME280_pressure;Samples;Min_cycle;Max_cycle;Signal;HPM_P1;HPM_P2
2023/12/26 00:03:52;;;;;;;0.95;0.63;;;21.40;50.00;;;;;;10474708;28;20139;-44
2023/12/26 00:08:55;;;;;;;1.00;0.70;;;21.30;50.10;;;;;;10465316;28;20136;-46
2023/12/26 00:13:56;;;;;;;0.70;0.70;;;21.30;50.10;;;;;;10472029;28;20478;-45
2023/12/26 00:18:58;;;;;;;0.98;0.70;;;21.10;50.40;;;;;;10469799;28;20071;-45
2023/12/26 00:24:01;;;;;;;1.00;0.70;;;21.20;50.30;;;;;;10478072;28;20577;-46
2023/12/26 00:29:02;;;;;;;0.75;0.57;;;21.10;50.10;;;;;;10473881;28;20047;-45
2023/12/26 00:34:04;;;;;;;1.30;0.60;;;21.10;50.20;;;;;;10468504;28;20467;-49
2023/12/26 00:39:07;;;;;;;1.00;0.60;;;21.10;50.10;;;;;;10469069;28;20128;-46
2023/12/26 00:44:09;;;;;;;0.80;0.60;;;21.10;50.00;;;;;;10472721;28;20498;-45
2023/12/26 00:49:11;;;;;;;0.95;0.70;;;21.10;50.00;;;;;;10472559;28;20131;-46
2023/12/26 00:54:14;;;;;;;0.50;0.50;;;21.00;50.20;;;;;;10479479;28;20052;-44
2023/12/26 00:59:15;;;;;;;1.73;0.68;;;21.00;50.00;;;;;;10479289;28;20064;-48
2023/12/26 01:04:19;;;;;;;0.85;0.60;;;21.00;50.10;;;;;;10484043;28;20132;-44
2023/12/26 01:09:22;;;;;;;0.82;0.60;;;21.10;49.80;;;;;;10481155;28;20045;-46
2023/12/26 01:14:24;;;;;;;0.50;0.40;;;21.00;49.90;;;;;;10472285;28;20099;-45
2023/12/26 01:19:26;;;;;;;0.80;0.40;;;21.00;49.80;;;;;;10473269;28;20120;-47
2023/12/26 01:24:29;;;;;;;0.65;0.50;;;21.00;50.00;;;;;;10474605;28;20136;-46
2023/12/26 01:29:31;;;;;;;0.43;0.40;;;20.90;50.00;;;;;;10478498;28;20131;-47
2023/12/26 01:34:32;;;;;;;0.77;0.60;;;20.90;50.10;;;;;;10487329;28;20464;-44
2023/12/26 01:39:35;;;;;;;0.88;0.43;;;20.90;50.00;;;;;;10479414;28;20102;-44
2023/12/26 01:44:37;;;;;;;0.40;0.40;;;20.80;50.00;;;;;;10480776;28;20127;-45
2023/12/26 01:49:38;;;;;;;0.88;0.52;;;20.80;50.30;;;;;;10477011;28;20111;-45
2023/12/26 01:54:41;;;;;;;0.73;0.50;;;20.90;49.90;;;;;;10475673;28;20123;-45
2023/12/26 01:59:43;;;;;;;0.88;0.47;;;20.80;50.10;;;;;;10469181;28;20124;-45
2023/12/26 02:04:45;;;;;;;0.65;0.40;;;20.70;50.10;;;;;;10472169;28;20135;-44
2023/12/26 02:09:47;;;;;;;0.57;0.50;;;20.70;50.10;;;;;;10477295;28;20140;-44
2023/12/26 02:14:49;;;;;;;0.63;0.35;;;20.60;50.30;;;;;;10474866;28;20127;-45
2023/12/26 02:19:51;;;;;;;0.35;0.35;;;20.60;50.30;;;;;;10481320;28;20048;-48
2023/12/26 02:24:54;;;;;;;0.40;0.40;;;20.60;50.40;;;;;;10477110;28;20131;-47
2023/12/26 02:29:55;;;;;;;0.30;0.30;;;20.50;50.50;;;;;;10474811;28;20064;-46
2023/12/26 02:35:00;;;;;;;0.57;0.45;;;20.50;50.50;;;;;;10465848;28;20127;-44
2023/12/26 02:40:03;;;;;;;0.70;0.40;;;20.40;50.70;;;;;;10477558;28;20491;-45
2023/12/26 02:45:06;;;;;;;0.50;0.40;;;20.50;50.50;;;;;;10483235;28;20068;-45
2023/12/26 02:50:09;;;;;;;0.50;0.32;;;20.40;50.40;;;;;;10472798;28;20072;-46
2023/12/26 02:55:12;;;;;;;0.68;0.40;;;20.40;50.40;;;;;;10475157;28;20128;-47
2023/12/26 03:00:14;;;;;;;0.68;0.40;;;20.40;50.40;;;;;;10475431;28;20051;-45
2023/12/26 03:05:16;;;;;;;0.40;0.35;;;20.40;50.50;;;;;;10474517;28;20133;-45
2023/12/26 03:10:19;;;;;;;0.30;0.30;;;20.40;50.40;;;;;;10469686;28;20148;-47
2023/12/26 03:15:20;;;;;;;0.70;0.40;;;20.40;50.40;;;;;;10463657;28;20139;-45
2023/12/26 03:20:22;;;;;;;0.60;0.40;;;20.30;50.30;;;;;;10466511;28;20172;-48
2023/12/26 03:25:25;;;;;;;0.38;0.38;;;20.40;50.20;;;;;;10476825;28;20132;-44
2023/12/26 03:30:26;;;;;;;0.50;0.40;;;20.30;50.40;;;;;;10469766;28;20191;-44
2023/12/26 03:35:28;;;;;;;0.55;0.40;;;20.30;50.20;;;;;;10472235;28;20629;-44
2023/12/26 03:40:31;;;;;;;0.38;0.38;;;20.20;50.50;;;;;;10463526;28;20145;-44
2023/12/26 03:45:32;;;;;;;0.32;0.30;;;20.10;50.50;;;;;;10462859;28;20140;-44
2023/12/26 03:50:34;;;;;;;0.30;0.30;;;20.20;50.50;;;;;;10478013;28;20139;-45
2023/12/26 03:55:37;;;;;;;0.68;0.30;;;20.00;50.80;;;;;;10471392;28;20135;-45
2023/12/26 04:00:38;;;;;;;0.30;0.30;;;20.10;50.80;;;;;;10470515;28;20491;-44
2023/12/26 04:05:40;;;;;;;0.40;0.35;;;20.00;50.80;;;;;;10469448;28;20555;-45
2023/12/26 04:10:43;;;;;;;0.40;0.40;;;19.90;50.80;;;;;;10467575;28;20147;-47
2023/12/26 04:15:45;;;;;;;0.40;0.30;;;20.40;49.90;;;;;;10473990;28;20132;-45
2023/12/26 04:20:46;;;;;;;0.30;0.30;;;20.70;49.10;;;;;;10461499;28;20498;-48
2023/12/26 04:25:50;;;;;;;0.32;0.30;;;20.80;48.90;;;;;;10466194;28;20123;-45
2023/12/26 04:30:52;;;;;;;1.02;0.30;;;20.60;50.40;;;;;;10468904;28;20048;-44
2023/12/26 04:35:53;;;;;;;0.55;0.40;;;20.70;50.60;;;;;;10476154;28;20076;-45
2023/12/26 04:40:56;;;;;;;0.45;0.45;;;20.80;50.70;;;;;;10483193;28;20135;-48
2023/12/26 04:45:58;;;;;;;0.50;0.30;;;20.90;50.80;;;;;;10461907;28;20147;-45
2023/12/26 04:50:59;;;;;;;0.52;0.40;;;20.90;50.70;;;;;;10462889;28;20530;-48
2023/12/26 04:56:02;;;;;;;0.40;0.30;;;21.00;50.40;;;;;;10462510;28;20445;-45
2023/12/26 05:01:04;;;;;;;0.82;0.40;;;21.20;49.90;;;;;;10475960;28;20442;-47
2023/12/26 05:06:06;;;;;;;0.38;0.30;;;21.30;49.60;;;;;;10473719;28;20123;-48
2023/12/26 05:11:09;;;;;;;0.40;0.40;;;21.30;49.80;;;;;;10462003;28;20084;-45
2023/12/26 05:16:11;;;;;;;0.57;0.50;;;21.30;49.90;;;;;;10470837;28;20178;-48
2023/12/26 05:21:18;;;;;;;0.32;0.32;;;21.20;50.20;;;;;;10469839;28;20143;-45
2023/12/26 05:26:21;;;;;;;0.63;0.40;;;21.40;50.00;;;;;;10462965;28;20549;-49
2023/12/26 05:31:23;;;;;;;0.55;0.40;;;21.30;50.00;;;;;;10470810;28;20494;-45
2023/12/26 05:36:24;;;;;;;0.73;0.40;;;21.50;49.70;;;;;;10461977;28;20219;-47
2023/12/26 05:41:27;;;;;;;1.15;0.50;;;21.50;49.70;;;;;;10472383;28;20143;-46
2023/12/26 05:46:29;;;;;;;0.40;0.40;;;21.60;49.70;;;;;;10479841;28;20132;-45
2023/12/26 05:51:31;;;;;;;0.85;0.50;;;21.60;49.50;;;;;;10478706;28;20106;-46
2023/12/26 05:56:34;;;;;;;1.88;0.60;;;21.70;49.50;;;;;;10472959;28;20139;-48
2023/12/26 06:01:35;;;;;;;1.25;0.57;;;21.70;49.50;;;;;;10467726;28;20128;-45
2023/12/26 06:06:37;;;;;;;0.70;0.40;;;21.70;49.50;;;;;;10473780;28;20566;-48
2023/12/26 06:11:40;;;;;;;2.13;0.70;;;21.70;49.50;;;;;;10481381;28;20110;-45
2023/12/26 06:16:41;;;;;;;0.90;0.68;;;21.80;49.20;;;;;;10476304;28;20207;-47
2023/12/26 06:21:43;;;;;;;1.45;0.70;;;21.80;49.00;;;;;;10469112;28;20574;-45
2023/12/26 06:26:46;;;;;;;2.47;0.60;;;21.90;48.60;;;;;;10466988;28;20156;-45
2023/12/26 06:31:48;;;;;;;1.67;0.60;;;22.00;48.50;;;;;;10470628;28;20140;-45
2023/12/26 06:36:49;;;;;;;1.15;0.57;;;22.00;48.30;;;;;;10477873;28;20040;-46
2023/12/26 06:41:52;;;;;;;1.80;0.55;;;22.20;47.80;;;;;;10474157;28;20131;-46
2023/12/26 06:46:54;;;;;;;1.50;0.70;;;22.30;47.60;;;;;;10471168;28;20514;-45
2023/12/26 06:51:55;;;;;;;1.65;0.60;;;22.30;47.40;;;;;;10470962;28;20049;-45
2023/12/26 06:57:05;;;;;;;1.95;0.60;;;22.30;47.30;;;;;;10479028;28;20148;-49
2023/12/26 07:02:07;;;;;;;1.30;0.68;;;22.30;47.10;;;;;;10471747;28;20517;-47
2023/12/26 07:07:08;;;;;;;2.67;0.90;;;22.30;47.10;;;;;;10463496;28;20053;-47
2023/12/26 07:12:11;;;;;;;1.85;0.75;;;22.30;47.20;;;;;;10466706;28;20139;-46
2023/12/26 07:17:13;;;;;;;1.23;0.70;;;22.40;46.80;;;;;;10468081;28;20174;-45
2023/12/26 07:22:15;;;;;;;1.38;0.65;;;22.40;46.80;;;;;;10482461;28;20159;-45
2023/12/26 07:27:17;;;;;;;1.63;0.68;;;22.40;46.90;;;;;;10475199;28;20135;-47
2023/12/26 07:32:20;;;;;;;2.72;0.60;;;22.30;46.90;;;;;;10466644;28;20132;-45
2023/12/26 07:37:22;;;;;;;2.22;0.80;;;22.20;47.00;;;;;;10468635;28;20049;-46
2023/12/26 07:42:25;;;;;;;1.77;0.80;;;22.00;47.50;;;;;;10468808;28;20139;-45
2023/12/26 07:47:30;;;;;;;1.15;0.60;;;21.90;47.50;;;;;;10468990;28;20048;-45
2023/12/26 07:52:31;;;;;;;1.88;0.80;;;21.90;47.50;;;;;;10467605;28;20578;-51
2023/12/26 07:57:34;;;;;;;2.97;0.80;;;21.90;47.10;;;;;;10468881;28;20180;-45
2023/12/26 08:02:36;;;;;;;2.00;0.70;;;22.00;46.90;;;;;;10471778;28;20131;-46
2023/12/26 08:07:37;;;;;;;1.55;0.70;;;22.10;46.80;;;;;;10470901;28;20120;-45
2023/12/26 08:12:40;;;;;;;2.20;0.80;;;22.10;46.60;;;;;;10474518;28;20140;-47
2023/12/26 08:17:42;;;;;;;1.48;0.60;;;22.00;46.80;;;;;;10464678;28;20140;-45
2023/12/26 08:22:43;;;;;;;1.38;0.70;;;21.90;46.80;;;;;;10461469;28;20127;-48
2023/12/26 08:27:46;;;;;;;1.92;0.82;;;21.80;46.80;;;;;;10468454;28;20044;-47
2023/12/26 08:32:48;;;;;;;1.73;0.68;;;21.50;47.50;;;;;;10470400;28;20131;-45
2023/12/26 08:37:50;;;;;;;3.00;1.00;;;21.60;47.30;;;;;;10473370;28;20135;-45
2023/12/26 08:42:53;;;;;;;2.63;0.85;;;21.50;47.30;;;;;;10469338;28;20139;-46
2023/12/26 08:47:56;;;;;;;2.70;1.13;;;21.50;47.30;;;;;;10467653;28;20538;-45
2023/12/26 08:52:57;;;;;;;2.38;0.80;;;21.60;47.00;;;;;;10477274;28;20066;-46
2023/12/26 08:58:02;;;;;;;1.90;0.90;;;21.60;46.90;;;;;;10469172;28;20136;-45
2023/12/26 09:03:04;;;;;;;2.55;0.93;;;21.60;46.80;;;;;;10463394;28;20079;-46
2023/12/26 09:08:05;;;;;;;2.78;1.05;;;21.30;47.50;;;;;;10463903;28;20045;-45
2023/12/26 09:13:08;;;;;;;2.47;0.80;;;21.00;48.20;;;;;;10470686;28;20143;-46
2023/12/26 09:18:13;;;;;;;2.58;1.02;;;20.70;48.90;;;;;;10483910;28;20500;-45
2023/12/26 09:23:15;;;;;;;2.15;0.88;;;20.60;49.00;;;;;;10480066;28;20080;-44
2023/12/26 09:28:17;;;;;;;1.88;0.77;;;20.50;49.30;;;;;;10474450;28;20485;-46
2023/12/26 09:33:19;;;;;;;2.30;0.98;;;20.40;49.50;;;;;;10476859;28;20137;-45
2023/12/26 09:38:21;;;;;;;1.95;1.02;;;20.40;49.40;;;;;;10470728;28;20143;-51
2023/12/26 09:43:24;;;;;;;2.58;1.02;;;20.70;48.80;;;;;;10478448;28;20127;-48
2023/12/26 09:48:25;;;;;;;2.22;0.85;;;21.10;47.30;;;;;;10474260;28;20156;-45
2023/12/26 09:53:27;;;;;;;1.73;1.00;;;20.80;48.50;;;;;;10477667;28;20476;-47
2023/12/26 09:58:30;;;;;;;2.63;1.00;;;20.60;49.40;;;;;;10475854;28;20135;-46
2023/12/26 10:03:32;;;;;;;1.92;1.00;;;20.90;49.30;;;;;;10479016;28;20510;-45
2023/12/26 10:08:33;;;;;;;2.47;0.95;;;21.00;49.10;;;;;;10484600;28;20123;-47
2023/12/26 10:13:44;;;;;;;1.80;0.90;;;21.10;49.00;;;;;;10469228;28;20135;-45
2023/12/26 10:18:46;;;;;;;2.03;1.10;;;21.20;48.90;;;;;;10466159;28;20136;-45
2023/12/26 10:23:48;;;;;;;2.00;0.82;;;21.40;48.70;;;;;;10470839;28;20313;-45
2023/12/26 10:28:53;;;;;;;1.35;0.90;;;21.40;48.70;;;;;;10479893;28;20123;-45
2023/12/26 10:33:54;;;;;;;2.25;1.02;;;21.40;48.80;;;;;;10481949;28;20068;-48
2023/12/26 10:38:56;;;;;;;1.55;0.70;;;21.40;48.70;;;;;;10472713;28;20049;-45
2023/12/26 10:44:00;;;;;;;1.60;0.80;;;21.50;48.70;;;;;;10473119;28;20040;-45
2023/12/26 10:49:04;;;;;;;1.63;0.82;;;21.50;48.50;;;;;;10479097;28;20040;-45
2023/12/26 10:54:22;;;;;;;2.72;1.00;;;21.60;48.50;;;;;;10469529;28;20044;-45
2023/12/26 10:59:25;;;;;;;1.88;1.10;;;21.60;48.30;;;;;;10476773;28;20407;-45
2023/12/26 11:04:27;;;;;;;2.13;1.15;;;21.60;48.40;;;;;;10473201;28;20137;-45
2023/12/26 11:09:29;;;;;;;2.15;0.80;;;21.60;48.40;;;;;;10474945;28;20128;-47
2023/12/26 11:14:31;;;;;;;2.72;0.90;;;21.80;48.20;;;;;;10479696;28;20127;-47
2023/12/26 11:19:33;;;;;;;2.53;0.95;;;21.70;48.20;;;;;;10475246;28;20582;-45
2023/12/26 11:24:35;;;;;;;2.10;0.90;;;21.80;48.10;;;;;;10468166;28;20147;-48
2023/12/26 11:29:38;;;;;;;3.08;1.20;;;21.80;48.10;;;;;;10468601;28;20122;-45
2023/12/26 11:34:39;;;;;;;1.48;0.73;;;21.80;48.00;;;;;;10467374;28;20170;-48
2023/12/26 11:39:42;;;;;;;1.42;0.70;;;21.80;48.10;;;;;;10477745;28;20045;-45
2023/12/26 11:44:45;;;;;;;2.20;0.95;;;21.80;48.10;;;;;;10471100;28;20132;-47
2023/12/26 11:49:47;;;;;;;1.65;0.80;;;21.90;47.90;;;;;;10472276;28;20558;-44
2023/12/26 11:54:48;;;;;;;2.25;0.90;;;21.80;48.10;;;;;;10471137;28;20048;-47
2023/12/26 11:59:51;;;;;;;2.25;0.77;;;21.90;48.00;;;;;;10473153;28;20673;-45
2023/12/26 12:04:53;;;;;;;1.20;0.65;;;21.90;48.10;;;;;;10473818;28;20135;-45
2023/12/26 12:09:55;;;;;;;2.35;0.80;;;21.80;48.10;;;;;;10464918;28;20128;-48
2023/12/26 12:14:58;;;;;;;1.85;0.80;;;22.00;48.00;;;;;;10468202;28;20135;-46
2023/12/26 12:19:59;;;;;;;4.20;1.25;;;21.90;47.90;;;;;;10466239;28;20136;-45
2023/12/26 12:25:01;;;;;;;0.95;0.60;;;22.00;47.70;;;;;;10476158;28;20048;-45
2023/12/26 12:30:04;;;;;;;2.38;1.00;;;22.00;47.60;;;;;;10479604;28;20123;-52
2023/12/26 12:35:13;;;;;;;3.20;1.20;;;22.10;47.60;;;;;;10468103;28;20135;-48
2023/12/26 12:40:15;;;;;;;2.85;0.80;;;22.10;47.60;;;;;;10466815;28;20575;-45
2023/12/26 12:45:18;;;;;;;2.63;1.08;;;22.10;47.60;;;;;;10467534;28;20171;-48
2023/12/26 12:50:19;;;;;;;1.80;1.00;;;22.10;47.60;;;;;;10475112;28;20167;-45
2023/12/26 12:55:21;;;;;;;1.77;0.80;;;22.10;47.60;;;;;;10474600;28;20139;-50
2023/12/26 13:00:24;;;;;;;2.20;0.80;;;22.20;47.60;;;;;;10473856;28;20045;-47
2023/12/26 13:05:26;;;;;;;2.55;0.85;;;22.20;47.50;;;;;;10479647;28;20132;-50
2023/12/26 13:10:27;;;;;;;2.17;0.90;;;22.20;47.40;;;;;;10483048;28;20480;-47
2023/12/26 13:15:30;;;;;;;4.68;0.93;;;22.30;47.30;;;;;;10480645;28;20135;-45
2023/12/26 13:20:32;;;;;;;1.88;0.90;;;22.30;47.30;;;;;;10471667;28;20140;-46
2023/12/26 13:25:38;;;;;;;1.88;0.90;;;22.20;47.30;;;;;;10471466;28;20131;-45
2023/12/26 13:30:41;;;;;;;3.28;1.00;;;22.20;47.30;;;;;;10475347;28;20127;-45
2023/12/26 13:35:43;;;;;;;1.60;0.70;;;22.20;47.60;;;;;;10480009;28;20135;-46
2023/12/26 13:40:44;;;;;;;2.03;1.00;;;22.30;47.40;;;;;;10477601;28;20132;-49
2023/12/26 13:45:47;;;;;;;1.52;0.82;;;22.40;47.10;;;;;;10476321;28;20044;-46
2023/12/26 13:50:49;;;;;;;1.67;0.85;;;22.40;47.30;;;;;;10473179;28;20128;-47
2023/12/26 13:55:50;;;;;;;2.38;0.80;;;22.40;47.20;;;;;;10476366;28;20049;-48
2023/12/26 14:00:53;;;;;;;1.00;0.70;;;22.30;47.30;;;;;;10473461;28;20395;-45
2023/12/26 14:05:55;;;;;;;1.40;0.80;;;22.30;47.40;;;;;;10471819;28;20052;-45
2023/12/26 14:10:57;;;;;;;2.00;0.90;;;22.40;47.40;;;;;;10470144;28;20169;-45
2023/12/26 14:15:59;;;;;;;1.40;0.70;;;22.50;47.10;;;;;;10471933;28;20132;-46
2023/12/26 14:21:02;;;;;;;1.80;0.70;;;22.40;47.40;;;;;;10477800;28;20493;-45
2023/12/26 14:26:03;;;;;;;1.45;0.90;;;22.50;47.30;;;;;;10482989;28;20384;-49
2023/12/26 14:31:06;;;;;;;1.20;0.70;;;22.40;47.40;;;;;;10470746;28;20074;-45
2023/12/26 14:36:08;;;;;;;1.77;0.80;;;22.50;47.30;;;;;;10470784;28;20143;-45
2023/12/26 14:41:09;;;;;;;1.40;0.80;;;22.40;47.50;;;;;;10471576;28;20052;-47
2023/12/26 14:46:14;;;;;;;1.73;0.70;;;22.40;47.50;;;;;;10475132;28;20139;-48
2023/12/26 14:51:16;;;;;;;1.63;0.85;;;22.60;47.30;;;;;;10469775;28;20596;-47
2023/12/26 14:56:17;;;;;;;1.27;0.65;;;22.50;47.50;;;;;;10472079;28;20136;-45
2023/12/26 15:01:20;;;;;;;1.42;0.68;;;22.50;47.80;;;;;;10477250;28;20140;-46
2023/12/26 15:06:22;;;;;;;1.15;0.60;;;22.50;47.60;;;;;;10471318;28;20202;-45
2023/12/26 15:11:24;;;;;;;1.25;0.70;;;22.60;47.50;;;;;;10479268;28;20123;-46
2023/12/26 15:16:27;;;;;;;1.45;0.80;;;22.60;47.30;;;;;;10476656;28;20052;-45
2023/12/26 15:21:28;;;;;;;1.02;0.55;;;22.60;47.40;;;;;;10467553;28;20170;-48
2023/12/26 15:26:30;;;;;;;1.02;0.60;;;22.60;47.50;;;;;;10466471;28;20135;-45
2023/12/26 15:31:33;;;;;;;0.82;0.68;;;22.70;47.50;;;;;;10477354;28;20124;-49
2023/12/26 15:36:35;;;;;;;1.05;0.60;;;22.70;47.50;;;;;;10480489;28;20056;-49
2023/12/26 15:41:36;;;;;;;1.20;0.60;;;22.60;47.60;;;;;;10470026;28;20041;-45
2023/12/26 15:46:39;;;;;;;1.30;0.70;;;22.70;47.70;;;;;;10466105;28;20598;-45
2023/12/26 15:51:42;;;;;;;1.13;0.60;;;22.70;47.40;;;;;;10475772;28;20041;-45
2023/12/26 15:56:43;;;;;;;0.68;0.50;;;22.70;47.60;;;;;;10475675;28;20055;-45
2023/12/26 16:01:47;;;;;;;0.93;0.60;;;22.80;47.40;;;;;;10470481;28;20127;-47
2023/12/26 16:06:49;;;;;;;1.05;0.63;;;22.80;47.30;;;;;;10470524;28;20571;-48
2023/12/26 16:11:51;;;;;;;2.10;0.80;;;22.80;47.30;;;;;;10467443;28;20055;-49
2023/12/26 16:16:54;;;;;;;1.67;0.70;;;22.70;47.40;;;;;;10474501;28;20139;-45
2023/12/26 16:21:56;;;;;;;1.00;0.60;;;22.70;47.40;;;;;;10474125;28;20494;-47
2023/12/26 16:26:57;;;;;;;1.40;0.70;;;22.80;47.30;;;;;;10469950;28;20059;-45
2023/12/26 16:32:00;;;;;;;1.13;0.57;;;22.90;47.30;;;;;;10473108;28;20519;-45
2023/12/26 16:37:02;;;;;;;0.75;0.50;;;22.80;47.40;;;;;;10468182;28;20049;-45
2023/12/26 16:42:08;;;;;;;0.93;0.55;;;22.90;47.40;;;;;;10471017;28;20157;-47
2023/12/26 16:47:11;;;;;;;1.00;0.60;;;22.90;47.20;;;;;;10465666;28;20059;-45
2023/12/26 16:52:13;;;;;;;0.90;0.60;;;22.90;47.20;;;;;;10469970;28;20049;-46
2023/12/26 16:57:14;;;;;;;0.88;0.60;;;22.90;47.00;;;;;;10465672;28;20139;-46
2023/12/26 17:02:17;;;;;;;0.90;0.63;;;23.00;47.00;;;;;;10467893;28;20132;-46
2023/12/26 17:07:19;;;;;;;0.65;0.43;;;22.90;47.10;;;;;;10481737;28;20060;-47
2023/12/26 17:12:21;;;;;;;1.05;0.50;;;22.80;47.40;;;;;;10472536;28;20403;-45
2023/12/26 17:17:25;;;;;;;0.50;0.40;;;22.90;47.10;;;;;;10467933;28;20049;-45
2023/12/26 17:22:27;;;;;;;1.08;0.60;;;22.90;47.00;;;;;;10462846;28;20079;-45
2023/12/26 17:27:29;;;;;;;1.10;0.60;;;22.90;47.10;;;;;;10470990;28;20135;-48
2023/12/26 17:32:32;;;;;;;0.77;0.40;;;22.90;47.00;;;;;;10478724;28;20127;-45
2023/12/26 17:37:33;;;;;;;0.60;0.60;;;22.90;47.20;;;;;;10468511;28;20144;-45
2023/12/26 17:42:35;;;;;;;1.08;0.57;;;22.90;47.20;;;;;;10478446;28;20129;-45
2023/12/26 17:47:39;;;;;;;0.55;0.47;;;22.90;47.10;;;;;;10478598;28;20048;-45
2023/12/26 17:52:40;;;;;;;0.93;0.52;;;23.00;47.10;;;;;;10478411;28;20128;-45
2023/12/26 17:57:42;;;;;;;0.65;0.50;;;23.10;46.90;;;;;;10477353;28;20578;-47
2023/12/26 18:02:45;;;;;;;0.95;0.50;;;23.10;47.00;;;;;;10471225;28;20123;-44
2023/12/26 18:07:47;;;;;;;0.88;0.50;;;23.20;46.90;;;;;;10475505;28;20136;-48
2023/12/26 18:12:48;;;;;;;0.60;0.50;;;23.10;46.90;;;;;;10474849;28;20116;-45
2023/12/26 18:17:54;;;;;;;0.65;0.50;;;23.10;46.90;;;;;;10482432;28;20571;-45
2023/12/26 18:22:56;;;;;;;0.43;0.40;;;23.00;47.00;;;;;;10477739;28;20052;-45
2023/12/26 18:27:57;;;;;;;0.68;0.43;;;23.10;47.00;;;;;;10477452;28;20236;-48
2023/12/26 18:33:00;;;;;;;0.90;0.55;;;23.10;46.80;;;;;;10477031;28;20561;-45
2023/12/26 18:38:02;;;;;;;0.40;0.40;;;23.10;46.90;;;;;;10474610;28;20156;-45
2023/12/26 18:43:04;;;;;;;1.52;0.50;;;23.10;46.90;;;;;;10474036;28;20137;-47
2023/12/26 18:48:07;;;;;;;0.75;0.50;;;23.10;47.00;;;;;;10470416;28;20131;-45
2023/12/26 18:53:09;;;;;;;0.60;0.50;;;23.10;46.90;;;;;;10468003;28;20135;-45
2023/12/26 18:58:11;;;;;;;0.90;0.50;;;23.10;46.80;;;;;;10480609;28;20139;-49
2023/12/26 19:03:13;;;;;;;0.50;0.50;;;23.20;46.70;;;;;;10480192;28;20054;-47
2023/12/26 19:08:15;;;;;;;1.08;0.55;;;23.20;46.80;;;;;;10477120;28;20489;-49
2023/12/26 19:13:18;;;;;;;0.77;0.60;;;23.30;46.60;;;;;;10472812;28;20128;-45
2023/12/26 19:18:21;;;;;;;1.40;0.60;;;23.30;46.40;;;;;;10471689;28;20048;-46
2023/12/26 19:23:23;;;;;;;0.77;0.60;;;23.20;46.40;;;;;;10473230;28;20135;-47
2023/12/26 19:28:24;;;;;;;0.80;0.60;;;23.10;46.60;;;;;;10480807;28;20459;-47
2023/12/26 19:33:27;;;;;;;1.85;0.60;;;23.10;46.30;;;;;;10472777;28;20044;-45
2023/12/26 19:38:29;;;;;;;0.60;0.40;;;22.90;46.50;;;;;;10475363;28;20049;-45
2023/12/26 19:43:30;;;;;;;1.27;0.50;;;22.90;46.30;;;;;;10473898;28;20135;-45
2023/12/26 19:48:33;;;;;;;1.08;0.55;;;23.10;45.80;;;;;;10472613;28;20080;-45
2023/12/26 19:53:35;;;;;;;0.75;0.47;;;23.10;46.00;;;;;;10473593;28;20470;-45
2023/12/26 19:58:37;;;;;;;1.77;0.70;;;23.00;45.90;;;;;;10462819;28;20135;-45
2023/12/26 20:03:39;;;;;;;1.02;0.68;;;23.10;45.60;;;;;;10469800;28;20441;-48
2023/12/26 20:08:41;;;;;;;1.92;0.50;;;23.00;45.50;;;;;;10470565;28;20140;-48
2023/12/26 20:13:44;;;;;;;1.05;0.60;;;23.10;45.50;;;;;;10481181;28;20119;-45
2023/12/26 20:18:51;;;;;;;1.30;0.57;;;23.10;45.60;;;;;;10478308;28;20048;-46
2023/12/26 20:23:53;;;;;;;0.60;0.50;;;23.00;45.40;;;;;;10473460;28;20091;-45
2023/12/26 20:28:54;;;;;;;0.82;0.50;;;23.00;45.30;;;;;;10470396;28;20155;-50
2023/12/26 20:33:57;;;;;;;1.42;0.47;;;22.90;45.40;;;;;;10469139;28;20481;-45
2023/12/26 20:38:59;;;;;;;1.13;0.60;;;22.80;45.60;;;;;;10477516;28;20068;-47
2023/12/26 20:44:02;;;;;;;0.77;0.52;;;22.60;45.90;;;;;;10466899;28;20052;-47
2023/12/26 20:49:07;;;;;;;1.40;0.50;;;22.20;46.50;;;;;;10467397;28;20052;-47
2023/12/26 20:54:12;;;;;;;0.80;0.60;;;21.90;47.10;;;;;;10476081;28;20048;-49
2023/12/26 20:59:13;;;;;;;1.02;0.77;;;21.90;47.20;;;;;;10476055;28;20046;-45
2023/12/26 21:04:17;;;;;;;1.20;0.60;;;21.80;47.40;;;;;;10475437;28;20128;-45
2023/12/26 21:09:19;;;;;;;1.63;0.50;;;21.70;47.40;;;;;;10472099;28;20064;-47
2023/12/26 21:14:20;;;;;;;1.20;0.60;;;21.70;47.60;;;;;;10478036;28;20056;-45
2023/12/26 21:19:23;;;;;;;1.60;0.57;;;21.60;47.70;;;;;;10475761;28;20131;-45
2023/12/26 21:24:25;;;;;;;0.95;0.50;;;21.70;47.40;;;;;;10483231;28;20194;-44
2023/12/26 21:29:26;;;;;;;1.05;0.55;;;21.70;47.40;;;;;;10477269;28;20140;-44
2023/12/26 21:34:29;;;;;;;1.10;0.70;;;21.60;47.30;;;;;;10481867;28;20465;-47
2023/12/26 21:39:31;;;;;;;0.93;0.60;;;21.60;47.30;;;;;;10476625;28;20141;-46
2023/12/26 21:44:33;;;;;;;1.00;0.60;;;21.60;47.50;;;;;;10478348;28;20135;-46
2023/12/26 21:49:38;;;;;;;1.48;0.60;;;21.60;47.30;;;;;;10475016;28;20554;-46
2023/12/26 21:54:39;;;;;;;0.63;0.50;;;21.60;47.50;;;;;;10470698;28;20053;-46
2023/12/26 21:59:41;;;;;;;1.92;0.65;;;21.50;47.50;;;;;;10473520;28;20128;-47
2023/12/26 22:04:44;;;;;;;0.77;0.57;;;21.40;47.60;;;;;;10476717;28;20131;-46
2023/12/26 22:09:45;;;;;;;1.88;0.60;;;21.40;47.70;;;;;;10483664;28;20554;-45
2023/12/26 22:14:47;;;;;;;0.98;0.50;;;21.30;47.70;;;;;;10482510;28;20143;-44
2023/12/26 22:19:50;;;;;;;1.65;0.60;;;21.30;47.70;;;;;;10477690;28;20135;-45
2023/12/26 22:24:53;;;;;;;1.30;0.70;;;21.20;47.60;;;;;;10473404;28;20142;-45
2023/12/26 22:29:54;;;;;;;0.65;0.50;;;21.20;47.70;;;;;;10471645;28;20044;-45
2023/12/26 22:34:57;;;;;;;0.82;0.60;;;21.20;47.70;;;;;;10484394;28;20062;-45
2023/12/26 22:39:59;;;;;;;0.82;0.50;;;21.20;47.60;;;;;;10470457;28;20136;-45
2023/12/26 22:45:01;;;;;;;1.20;0.60;;;21.00;47.80;;;;;;10471626;28;20048;-48
2023/12/26 22:50:04;;;;;;;1.25;0.63;;;21.00;47.90;;;;;;10477030;28;20131;-44
2023/12/26 22:55:06;;;;;;;1.63;0.60;;;21.10;47.60;;;;;;10474804;28;20083;-45
2023/12/26 23:00:16;;;;;;;0.93;0.52;;;21.00;47.60;;;;;;10478642;28;20135;-44
2023/12/26 23:05:22;;;;;;;1.10;0.60;;;21.00;47.50;;;;;;10473166;28;20413;-47
2023/12/26 23:10:24;;;;;;;0.85;0.50;;;21.00;47.50;;;;;;10467853;28;20041;-47
2023/12/26 23:15:25;;;;;;;0.85;0.50;;;20.90;47.60;;;;;;10472389;28;20056;-45
2023/12/26 23:20:28;;;;;;;0.70;0.50;;;20.90;48.10;;;;;;10476600;28;20087;-45
2023/12/26 23:25:30;;;;;;;1.00;0.60;;;20.90;47.70;;;;;;10474259;28;20131;-44
2023/12/26 23:30:32;;;;;;;1.83;0.55;;;20.70;47.90;;;;;;10465071;28;20090;-44
2023/12/26 23:35:34;;;;;;;0.95;0.65;;;20.70;47.80;;;;;;10461342;28;20136;-44
2023/12/26 23:40:36;;;;;;;0.70;0.50;;;20.80;47.70;;;;;;10471786;28;20049;-44
2023/12/26 23:45:38;;;;;;;1.02;0.60;;;20.60;48.00;;;;;;10464997;28;20566;-44
2023/12/26 23:50:42;;;;;;;0.70;0.50;;;20.60;47.90;;;;;;10471427;28;20135;-48
2023/12/26 23:55:44;;;;;;;0.90;0.60;;;20.60;47.90;;;;;;10470788;28;20127;-45
